createdAt,value
2017-07-30T00:00:02.602Z,13.79
2017-07-30T00:01:12.243Z,13.78
2017-07-30T00:02:22.511Z,13.8
2017-07-30T00:03:32.775Z,13.94
2017-07-30T00:04:42.416Z,13.94
2017-07-30T00:05:52.683Z,13.87
2017-07-30T00:07:02.951Z,13.79
2017-07-30T00:08:12.905Z,13.8
2017-07-30T00:09:22.862Z,13.76
2017-07-30T00:10:33.129Z,13.8
2017-07-30T00:11:43.086Z,13.76
2017-07-30T00:12:53.039Z,13.89
2017-07-30T00:14:03.304Z,13.91
2017-07-30T00:15:13.572Z,13.86
2017-07-30T00:16:23.852Z,13.91
2017-07-30T00:17:33.814Z,13.82
2017-07-30T00:18:44.084Z,13.87
2017-07-30T00:19:54.037Z,13.91
2017-07-30T00:21:04.304Z,13.85
2017-07-30T00:22:14.578Z,13.79
2017-07-30T00:23:24.846Z,13.8
2017-07-30T00:24:34.798Z,13.79
2017-07-30T00:25:44.438Z,13.91
2017-07-30T00:26:54.706Z,13.85
2017-07-30T00:28:04.984Z,13.79
2017-07-30T00:29:15.254Z,13.83
2017-07-30T00:30:25.517Z,13.79
2017-07-30T00:31:35.469Z,13.76
2017-07-30T00:32:45.105Z,13.76
2017-07-30T00:33:55.372Z,13.8
2017-07-30T00:35:05.642Z,13.73
2017-07-30T00:36:15.908Z,13.79
2017-07-30T00:37:26.176Z,13.8
2017-07-30T00:38:36.443Z,13.7
2017-07-30T00:39:46.393Z,13.71
2017-07-30T00:40:56.342Z,13.75
2017-07-30T00:42:06.636Z,13.76
2017-07-30T00:43:16.591Z,13.78
2017-07-30T00:44:26.859Z,13.73
2017-07-30T00:45:37.128Z,13.82
2017-07-30T00:46:47.087Z,13.7
2017-07-30T00:47:56.744Z,13.76
2017-07-30T00:49:07.017Z,13.83
2017-07-30T00:50:17.282Z,13.8
2017-07-30T00:51:27.546Z,13.79
2017-07-30T00:52:37.809Z,13.78
2017-07-30T00:53:48.073Z,13.82
2017-07-30T00:54:58.337Z,13.7
2017-07-30T00:56:08.290Z,13.79
2017-07-30T00:57:18.562Z,13.79
2017-07-30T00:58:28.514Z,13.83
2017-07-30T00:59:38.777Z,13.71
2017-07-30T01:00:49.048Z,13.73
2017-07-30T01:01:59.322Z,13.8
2017-07-30T01:03:09.272Z,13.82
2017-07-30T01:04:19.225Z,13.8
2017-07-30T01:05:29.491Z,13.8
2017-07-30T01:06:39.759Z,13.79
2017-07-30T01:07:50.032Z,13.8
2017-07-30T01:09:00.326Z,13.76
2017-07-30T01:10:10.281Z,13.75
2017-07-30T01:11:20.550Z,13.76
2017-07-30T01:12:30.825Z,13.8
2017-07-30T01:13:41.088Z,13.79
2017-07-30T01:14:51.367Z,13.79
2017-07-30T01:16:01.318Z,13.8
2017-07-30T01:17:11.273Z,13.79
2017-07-30T01:18:21.231Z,13.78
2017-07-30T01:19:31.501Z,13.78
2017-07-30T01:20:41.771Z,13.75
2017-07-30T01:21:51.727Z,13.71
2017-07-30T01:23:01.997Z,13.75
2017-07-30T01:24:12.264Z,13.73
2017-07-30T01:25:22.531Z,13.75
2017-07-30T01:26:32.804Z,13.75
2017-07-30T01:27:42.757Z,13.78
2017-07-30T01:28:52.708Z,13.78
2017-07-30T01:30:02.979Z,13.79
2017-07-30T01:31:12.935Z,13.78
2017-07-30T01:32:23.204Z,13.79
2017-07-30T01:33:33.157Z,13.79
2017-07-30T01:34:43.111Z,13.7
2017-07-30T01:35:53.401Z,13.65
2017-07-30T01:37:03.370Z,13.73
2017-07-30T01:38:13.636Z,13.68
2017-07-30T01:39:23.901Z,13.68
2017-07-30T01:40:34.179Z,13.78
2017-07-30T01:41:44.747Z,13.73
2017-07-30T01:42:55.024Z,13.7
2017-07-30T01:44:05.295Z,13.75
2017-07-30T01:45:15.565Z,13.87
2017-07-30T01:46:25.518Z,13.67
2017-07-30T01:47:35.782Z,13.76
2017-07-30T01:48:46.054Z,13.65
2017-07-30T01:49:56.328Z,13.76
2017-07-30T01:51:06.596Z,13.76
2017-07-30T01:52:16.863Z,13.75
2017-07-30T01:53:27.133Z,13.75
2017-07-30T01:54:37.400Z,13.76
2017-07-30T01:55:47.694Z,13.71
2017-07-30T01:56:57.657Z,13.73
2017-07-30T01:58:07.928Z,13.76
2017-07-30T01:59:17.879Z,13.76
2017-07-30T02:00:28.147Z,13.73
2017-07-30T02:01:38.411Z,13.76
2017-07-30T02:02:48.672Z,13.73
2017-07-30T02:03:58.942Z,13.75
2017-07-30T02:05:09.429Z,13.64
2017-07-30T02:06:19.698Z,13.79
2017-07-30T02:07:29.966Z,13.7
2017-07-30T02:08:40.239Z,13.6
2017-07-30T02:09:50.513Z,13.65
2017-07-30T02:11:02.473Z,13.61
2017-07-30T02:12:12.746Z,13.68
2017-07-30T02:13:22.718Z,13.67
2017-07-30T02:14:32.990Z,13.68
2017-07-30T02:15:42.941Z,13.61
2017-07-30T02:16:56.932Z,13.67
2017-07-30T02:18:06.883Z,13.64
2017-07-30T02:19:17.157Z,13.71
2017-07-30T02:20:27.424Z,13.62
2017-07-30T02:21:37.696Z,13.61
2017-07-30T02:22:47.653Z,13.62
2017-07-30T02:23:57.607Z,13.65
2017-07-30T02:25:07.568Z,13.6
2017-07-30T02:26:17.837Z,13.61
2017-07-30T02:27:27.793Z,13.7
2017-07-30T02:28:38.064Z,13.67
2017-07-30T02:29:48.026Z,13.62
2017-07-30T02:30:58.291Z,13.7
2017-07-30T02:32:08.566Z,13.65
2017-07-30T02:33:18.840Z,13.64
2017-07-30T02:34:29.109Z,13.64
2017-07-30T02:35:39.379Z,13.71
2017-07-30T02:36:49.648Z,13.64
2017-07-30T02:37:59.607Z,13.64
2017-07-30T02:39:09.883Z,13.78
2017-07-30T02:40:20.160Z,13.62
2017-07-30T02:41:30.425Z,13.68
2017-07-30T02:42:40.385Z,13.67
2017-07-30T02:43:50.655Z,13.7
2017-07-30T02:45:00.612Z,13.65
2017-07-30T02:46:10.567Z,13.68
2017-07-30T02:47:20.834Z,13.62
2017-07-30T02:48:31.103Z,13.67
2017-07-30T02:49:41.063Z,13.65
2017-07-30T02:50:51.330Z,13.7
2017-07-30T02:52:01.337Z,13.62
2017-07-30T02:53:11.304Z,13.68
2017-07-30T02:54:21.571Z,13.68
2017-07-30T02:55:31.837Z,13.67
2017-07-30T02:56:41.789Z,13.65
2017-07-30T02:57:52.060Z,13.62
2017-07-30T02:59:02.027Z,13.62
2017-07-30T03:00:12.042Z,13.62
2017-07-30T03:01:22.309Z,13.68
2017-07-30T03:02:32.259Z,13.75
2017-07-30T03:03:42.210Z,13.67
2017-07-30T03:04:52.161Z,13.62
2017-07-30T03:06:02.427Z,13.76
2017-07-30T03:07:12.704Z,13.62
2017-07-30T03:08:22.971Z,13.71
2017-07-30T03:09:33.242Z,13.7
2017-07-30T03:10:42.881Z,13.79
2017-07-30T03:11:53.146Z,13.68
2017-07-30T03:13:03.096Z,13.75
2017-07-30T03:14:13.369Z,13.71
2017-07-30T03:15:23.649Z,13.73
2017-07-30T03:16:33.919Z,13.79
2017-07-30T03:17:44.185Z,13.79
2017-07-30T03:18:54.163Z,13.8
2017-07-30T03:20:04.163Z,13.73
2017-07-30T03:21:14.118Z,13.76
2017-07-30T03:22:24.382Z,13.71
2017-07-30T03:23:34.650Z,13.86
2017-07-30T03:24:44.290Z,13.86
2017-07-30T03:25:54.240Z,13.86
2017-07-30T03:27:04.504Z,13.8
2017-07-30T03:28:14.470Z,13.79
2017-07-30T03:29:24.734Z,13.79
2017-07-30T03:30:35.011Z,13.78
2017-07-30T03:31:45.284Z,13.86
2017-07-30T03:32:55.555Z,13.76
2017-07-30T03:34:05.508Z,13.87
2017-07-30T03:35:15.776Z,13.94
2017-07-30T03:36:26.051Z,13.94
2017-07-30T03:37:36.324Z,13.75
2017-07-30T03:38:46.294Z,13.85
2017-07-30T03:39:56.557Z,13.79
2017-07-30T03:41:06.824Z,13.8
2017-07-30T03:42:17.089Z,13.82
2017-07-30T03:43:27.355Z,13.86
2017-07-30T03:44:37.616Z,13.87
2017-07-30T03:45:47.568Z,13.91
2017-07-30T03:46:57.854Z,13.85
2017-07-30T03:48:08.123Z,14
2017-07-30T03:49:18.394Z,13.91
2017-07-30T03:50:28.664Z,13.98
2017-07-30T03:51:38.934Z,13.95
2017-07-30T03:52:49.200Z,13.87
2017-07-30T03:53:59.151Z,13.91
2017-07-30T03:55:09.426Z,13.98
2017-07-30T03:56:19.696Z,13.98
2017-07-30T03:57:29.968Z,13.94
2017-07-30T03:58:40.241Z,13.98
2017-07-30T03:59:50.561Z,14
2017-07-30T04:01:00.831Z,14.07
2017-07-30T04:02:10.796Z,14.05
2017-07-30T04:03:21.066Z,14.08
2017-07-30T04:04:31.341Z,14.05
2017-07-30T04:05:41.609Z,14.07
2017-07-30T04:06:51.876Z,14.15
2017-07-30T04:08:02.142Z,14.18
2017-07-30T04:09:12.093Z,14.13
2017-07-30T04:10:22.365Z,14.19
2017-07-30T04:11:32.324Z,14.16
2017-07-30T04:12:42.601Z,14.11
2017-07-30T04:13:52.869Z,14.15
2017-07-30T04:15:02.826Z,14.18
2017-07-30T04:16:12.777Z,14.12
2017-07-30T04:17:23.051Z,14.16
2017-07-30T04:18:33.003Z,14.12
2017-07-30T04:19:42.959Z,14.12
2017-07-30T04:20:52.911Z,14.22
2017-07-30T04:22:03.181Z,14.15
2017-07-30T04:23:13.139Z,14.16
2017-07-30T04:24:23.090Z,14.13
2017-07-30T04:25:33.051Z,14.15
2017-07-30T04:26:42.692Z,14.12
2017-07-30T04:27:52.964Z,14.12
2017-07-30T04:29:03.231Z,14.05
2017-07-30T04:30:13.499Z,14.15
2017-07-30T04:31:23.765Z,14.08
2017-07-30T04:32:33.722Z,14.07
2017-07-30T04:33:43.986Z,14.11
2017-07-30T04:34:54.248Z,14.03
2017-07-30T04:36:04.508Z,14.03
2017-07-30T04:37:14.772Z,13.93
2017-07-30T04:38:25.043Z,13.94
2017-07-30T04:39:35.313Z,13.94
2017-07-30T04:40:45.588Z,13.94
2017-07-30T04:41:55.855Z,13.97
2017-07-30T04:43:05.493Z,13.98
2017-07-30T04:44:15.762Z,13.98
2017-07-30T04:45:26.039Z,13.94
2017-07-30T04:46:36.320Z,13.95
2017-07-30T04:47:46.271Z,13.97
2017-07-30T04:48:56.571Z,14.01
2017-07-30T04:50:06.524Z,13.97
2017-07-30T04:51:16.477Z,14
2017-07-30T04:52:26.429Z,14.08
2017-07-30T04:53:36.720Z,14.04
2017-07-30T04:54:46.686Z,14.05
2017-07-30T04:55:56.970Z,14.15
2017-07-30T04:57:07.241Z,14.03
2017-07-30T04:58:17.509Z,14.13
2017-07-30T04:59:27.793Z,14.18
2017-07-30T05:00:38.061Z,14.15
2017-07-30T05:01:48.338Z,14.11
2017-07-30T05:02:58.292Z,14.25
2017-07-30T05:04:08.565Z,14.25
2017-07-30T05:05:18.838Z,14.31
2017-07-30T05:06:29.118Z,14.3
2017-07-30T05:07:39.392Z,14.34
2017-07-30T05:08:49.352Z,14.41
2017-07-30T05:09:59.623Z,14.38
2017-07-30T05:11:09.577Z,14.34
2017-07-30T05:12:19.530Z,14.48
2017-07-30T05:13:29.799Z,14.56
2017-07-30T05:14:40.099Z,14.53
2017-07-30T05:15:50.059Z,14.62
2017-07-30T05:17:00.012Z,14.66
2017-07-30T05:18:09.650Z,14.78
2017-07-30T05:19:19.920Z,14.82
2017-07-30T05:20:30.193Z,14.89
2017-07-30T05:21:40.147Z,14.93
2017-07-30T05:22:50.437Z,15.07
2017-07-30T05:24:00.706Z,15.07
2017-07-30T05:25:10.978Z,15.11
2017-07-30T05:26:21.250Z,15.17
2017-07-30T05:27:31.523Z,15.18
2017-07-30T05:28:41.797Z,15.22
2017-07-30T05:29:52.068Z,15.3
2017-07-30T05:31:02.340Z,15.33
2017-07-30T05:32:12.611Z,15.35
2017-07-30T05:33:22.567Z,15.32
2017-07-30T05:34:32.841Z,15.37
2017-07-30T05:35:43.131Z,15.47
2017-07-30T05:36:53.401Z,15.45
2017-07-30T05:38:03.363Z,15.59
2017-07-30T05:39:13.633Z,15.65
2017-07-30T05:40:23.907Z,15.66
2017-07-30T05:41:33.863Z,15.72
2017-07-30T05:42:44.133Z,15.75
2017-07-30T05:43:54.406Z,15.7
2017-07-30T05:45:04.680Z,15.81
2017-07-30T05:46:14.966Z,15.75
2017-07-30T05:47:25.248Z,15.9
2017-07-30T05:48:35.522Z,15.87
2017-07-30T05:49:45.796Z,15.9
2017-07-30T05:50:56.072Z,15.94
2017-07-30T05:52:06.028Z,15.94
2017-07-30T05:53:16.303Z,15.98
2017-07-30T05:54:26.575Z,16.03
2017-07-30T05:55:36.848Z,16.13
2017-07-30T05:56:47.122Z,16.08
2017-07-30T05:57:57.081Z,16.17
2017-07-30T05:59:07.059Z,16.25
2017-07-30T06:00:17.333Z,16.25
2017-07-30T06:01:27.295Z,16.25
2017-07-30T06:02:37.572Z,16.31
2017-07-30T06:03:47.849Z,16.24
2017-07-30T06:04:58.123Z,16.39
2017-07-30T06:06:08.084Z,16.46
2017-07-30T06:07:18.042Z,16.44
2017-07-30T06:08:28.315Z,16.44
2017-07-30T06:09:38.593Z,16.46
2017-07-30T06:10:48.868Z,16.54
2017-07-30T06:11:59.140Z,16.51
2017-07-30T06:13:09.098Z,16.5
2017-07-30T06:14:19.084Z,16.58
2017-07-30T06:15:29.042Z,16.59
2017-07-30T06:16:39.003Z,16.51
2017-07-30T06:17:48.975Z,16.51
2017-07-30T06:18:58.929Z,16.47
2017-07-30T06:20:08.887Z,16.57
2017-07-30T06:21:19.161Z,16.49
2017-07-30T06:22:29.431Z,16.61
2017-07-30T06:23:39.698Z,16.5
2017-07-30T06:24:49.660Z,16.59
2017-07-30T06:25:59.932Z,16.64
2017-07-30T06:27:10.208Z,16.68
2017-07-30T06:28:20.477Z,16.61
2017-07-30T06:29:30.430Z,16.73
2017-07-30T06:30:40.382Z,16.74
2017-07-30T06:31:50.651Z,16.83
2017-07-30T06:33:00.610Z,16.83
2017-07-30T06:34:10.569Z,16.94
2017-07-30T06:35:20.541Z,16.98
2017-07-30T06:36:30.815Z,16.97
2017-07-30T06:37:41.085Z,16.97
2017-07-30T06:38:51.354Z,16.95
2017-07-30T06:40:01.309Z,16.97
2017-07-30T06:41:10.950Z,17.04
2017-07-30T06:42:21.218Z,17.05
2017-07-30T06:43:31.173Z,17.12
2017-07-30T06:44:41.446Z,17.2
2017-07-30T06:45:51.717Z,17.14
2017-07-30T06:47:01.994Z,17.24
2017-07-30T06:48:11.960Z,17.31
2017-07-30T06:49:22.240Z,17.35
2017-07-30T06:50:32.510Z,17.46
2017-07-30T06:51:42.785Z,17.53
2017-07-30T06:52:52.425Z,17.54
2017-07-30T06:54:02.700Z,17.63
2017-07-30T06:55:12.971Z,17.8
2017-07-30T06:56:22.929Z,17.84
2017-07-30T06:57:33.204Z,17.9
2017-07-30T06:58:43.162Z,17.9
2017-07-30T06:59:53.126Z,17.95
2017-07-30T07:01:03.396Z,18
2017-07-30T07:02:13.663Z,18.06
2017-07-30T07:03:23.312Z,18.11
2017-07-30T07:04:33.581Z,18.13
2017-07-30T07:05:43.542Z,18.16
2017-07-30T07:06:53.815Z,18.12
2017-07-30T07:08:04.086Z,18.21
2017-07-30T07:09:13.727Z,18.3
2017-07-30T07:10:23.684Z,18.33
2017-07-30T07:11:33.963Z,18.24
2017-07-30T07:12:44.244Z,18.28
2017-07-30T07:13:54.527Z,18.39
2017-07-30T07:15:04.800Z,18.39
2017-07-30T07:16:15.081Z,18.33
2017-07-30T07:17:24.726Z,18.49
2017-07-30T07:18:34.999Z,18.37
2017-07-30T07:19:45.322Z,18.49
2017-07-30T07:20:55.592Z,18.51
2017-07-30T07:22:05.871Z,18.55
2017-07-30T07:23:16.142Z,18.6
2017-07-30T07:24:26.430Z,18.64
2017-07-30T07:25:36.701Z,18.67
2017-07-30T07:26:46.977Z,18.68
2017-07-30T07:27:56.937Z,18.76
2017-07-30T07:29:07.209Z,18.83
2017-07-30T07:30:17.477Z,18.79
2017-07-30T07:31:27.748Z,18.85
2017-07-30T07:32:38.019Z,18.76
2017-07-30T07:33:47.664Z,18.74
2017-07-30T07:34:57.940Z,18.78
2017-07-30T07:36:08.221Z,18.76
2017-07-30T07:37:18.198Z,18.76
2017-07-30T07:38:28.470Z,18.7
2017-07-30T07:39:38.743Z,18.68
2017-07-30T07:40:49.018Z,18.66
2017-07-30T07:41:59.284Z,18.55
2017-07-30T07:43:09.550Z,18.51
2017-07-30T07:44:19.513Z,18.55
2017-07-30T07:45:29.488Z,18.51
2017-07-30T07:46:39.757Z,18.57
2017-07-30T07:47:49.718Z,18.58
2017-07-30T07:49:00.000Z,18.52
2017-07-30T07:50:10.286Z,18.49
2017-07-30T07:51:20.566Z,18.51
2017-07-30T07:52:30.848Z,18.51
2017-07-30T07:53:40.807Z,18.57
2017-07-30T07:54:51.075Z,18.43
2017-07-30T07:56:01.035Z,18.49
2017-07-30T07:57:11.322Z,18.39
2017-07-30T07:58:21.593Z,18.43
2017-07-30T07:59:31.868Z,18.34
2017-07-30T08:00:42.140Z,18.41
2017-07-30T08:01:52.416Z,18.28
2017-07-30T08:03:02.069Z,18.34
2017-07-30T08:04:12.361Z,18.31
2017-07-30T08:05:22.006Z,18.3
2017-07-30T08:06:32.280Z,18.28
2017-07-30T08:07:42.238Z,18.27
2017-07-30T08:08:51.886Z,18.33
2017-07-30T08:10:01.848Z,18.21
2017-07-30T08:11:11.808Z,18.23
2017-07-30T08:12:22.088Z,18.34
2017-07-30T08:13:32.366Z,18.34
2017-07-30T08:14:42.006Z,18.31
2017-07-30T08:15:52.274Z,18.3
2017-07-30T08:17:02.233Z,18.34
2017-07-30T08:18:12.505Z,18.45
2017-07-30T08:19:22.783Z,18.48
2017-07-30T08:20:32.738Z,18.53
2017-07-30T08:21:42.699Z,18.57
2017-07-30T08:22:52.969Z,18.57
2017-07-30T08:24:03.248Z,18.6
2017-07-30T08:25:13.521Z,18.63
2017-07-30T08:26:23.800Z,18.71
2017-07-30T08:27:34.070Z,18.7
2017-07-30T08:28:44.044Z,18.78
2017-07-30T08:29:54.326Z,18.79
2017-07-30T08:31:04.289Z,18.74
2017-07-30T08:32:14.564Z,18.85
2017-07-30T08:33:24.847Z,18.81
2017-07-30T08:34:34.806Z,18.82
2017-07-30T08:35:45.079Z,18.88
2017-07-30T08:36:55.035Z,18.88
2017-07-30T08:38:05.310Z,19
2017-07-30T08:39:15.264Z,19
2017-07-30T08:40:25.533Z,19.11
2017-07-30T08:41:35.805Z,19.16
2017-07-30T08:42:46.078Z,19.2
2017-07-30T08:43:56.351Z,19.23
2017-07-30T08:45:06.696Z,19.38
2017-07-30T08:46:16.971Z,19.37
2017-07-30T08:47:26.636Z,19.34
2017-07-30T08:48:36.592Z,19.42
2017-07-30T08:49:46.867Z,19.44
2017-07-30T08:50:56.852Z,19.47
2017-07-30T08:52:07.125Z,19.44
2017-07-30T08:53:17.400Z,19.44
2017-07-30T08:54:27.684Z,19.45
2017-07-30T08:55:37.955Z,19.6
2017-07-30T08:56:48.229Z,19.56
2017-07-30T08:57:58.503Z,19.62
2017-07-30T08:59:08.778Z,19.59
2017-07-30T09:00:18.418Z,19.67
2017-07-30T09:01:28.691Z,19.6
2017-07-30T09:02:38.659Z,19.66
2017-07-30T09:03:47.673Z,19.74
2017-07-30T09:04:57.632Z,19.77
2017-07-30T09:06:07.902Z,19.81
2017-07-30T09:07:17.546Z,19.97
2017-07-30T09:08:27.189Z,19.93
2017-07-30T09:09:37.461Z,19.9
2017-07-30T09:10:47.108Z,20.07
2017-07-30T09:11:57.065Z,20.03
2017-07-30T09:13:07.344Z,20.12
2017-07-30T09:14:17.625Z,20.04
2017-07-30T09:15:27.905Z,19.97
2017-07-30T09:16:38.182Z,20.08
2017-07-30T09:17:48.464Z,20.14
2017-07-30T09:18:58.442Z,20.04
2017-07-30T09:20:08.722Z,20.08
2017-07-30T09:21:19.000Z,20.19
2017-07-30T09:22:29.287Z,20.11
2017-07-30T09:23:39.250Z,20.19
2017-07-30T09:24:48.896Z,20.17
2017-07-30T09:25:59.170Z,20.15
2017-07-30T09:27:09.447Z,20.11
2017-07-30T09:28:19.716Z,20.21
2017-07-30T09:29:29.990Z,20.14
2017-07-30T09:30:40.273Z,20.27
2017-07-30T09:31:50.541Z,20.27
2017-07-30T09:33:00.502Z,20.27
2017-07-30T09:34:10.784Z,20.3
2017-07-30T09:35:21.058Z,20.26
2017-07-30T09:36:31.334Z,20.12
2017-07-30T09:37:41.609Z,20.14
2017-07-30T09:38:51.886Z,20.26
2017-07-30T09:40:02.159Z,20.32
2017-07-30T09:41:12.435Z,20.32
2017-07-30T09:42:22.394Z,20.44
2017-07-30T09:43:32.356Z,20.48
2017-07-30T09:44:42.002Z,20.52
2017-07-30T09:45:52.284Z,20.58
2017-07-30T09:47:02.562Z,20.63
2017-07-30T09:48:12.526Z,20.73
2017-07-30T09:49:22.486Z,20.75
2017-07-30T09:50:32.446Z,20.82
2017-07-30T09:51:42.399Z,20.9
2017-07-30T09:52:52.358Z,21
2017-07-30T09:54:02.636Z,21.05
2017-07-30T09:55:11.963Z,21.1
2017-07-30T09:56:21.926Z,21.1
2017-07-30T09:57:32.203Z,21.07
2017-07-30T09:58:42.476Z,21.07
2017-07-30T09:59:52.764Z,21.11
2017-07-30T10:01:03.049Z,21.11
2017-07-30T10:02:13.328Z,21.14
2017-07-30T10:03:23.613Z,21
2017-07-30T10:04:33.895Z,21.08
2017-07-30T10:05:43.542Z,20.96
2017-07-30T10:06:53.503Z,21.04
2017-07-30T10:08:03.793Z,20.96
2017-07-30T10:09:14.067Z,20.95
2017-07-30T10:10:24.031Z,20.93
2017-07-30T10:11:33.989Z,21.01
2017-07-30T10:12:43.944Z,21
2017-07-30T10:13:54.216Z,20.95
2017-07-30T10:15:03.549Z,20.92
2017-07-30T10:16:13.819Z,20.92
2017-07-30T10:17:24.091Z,20.9
2017-07-30T10:18:34.049Z,20.92
2017-07-30T10:19:43.694Z,20.9
2017-07-30T10:20:53.978Z,20.77
2017-07-30T10:22:04.252Z,20.77
2017-07-30T10:23:14.215Z,20.77
2017-07-30T10:24:24.494Z,20.71
2017-07-30T10:25:34.455Z,20.66
2017-07-30T10:26:44.421Z,20.59
2017-07-30T10:27:54.699Z,20.6
2017-07-30T10:29:04.981Z,20.58
2017-07-30T10:30:15.262Z,20.56
2017-07-30T10:31:25.553Z,20.48
2017-07-30T10:32:35.819Z,20.52
2017-07-30T10:33:45.465Z,20.46
2017-07-30T10:34:55.790Z,20.48
2017-07-30T10:36:05.749Z,20.44
2017-07-30T10:37:16.030Z,20.52
2017-07-30T10:38:25.678Z,20.37
2017-07-30T10:39:35.949Z,20.3
2017-07-30T10:40:45.910Z,20.37
2017-07-30T10:41:56.248Z,20.4
2017-07-30T10:43:06.207Z,20.32
2017-07-30T10:44:16.175Z,20.24
2017-07-30T10:45:26.447Z,20.29
2017-07-30T10:46:36.721Z,20.29
2017-07-30T10:47:46.994Z,20.18
2017-07-30T10:48:56.956Z,20.11
2017-07-30T10:50:07.233Z,19.92
2017-07-30T10:51:17.513Z,19.92
2017-07-30T10:52:27.796Z,19.92
2017-07-30T10:53:38.071Z,19.9
2017-07-30T10:54:48.341Z,19.89
2017-07-30T10:55:58.615Z,19.79
2017-07-30T10:57:08.573Z,19.84
2017-07-30T10:58:18.855Z,19.9
2017-07-30T10:59:29.166Z,19.92
2017-07-30T11:00:39.447Z,19.85
2017-07-30T11:01:49.721Z,19.92
2017-07-30T11:02:59.741Z,19.9
2017-07-30T11:04:10.015Z,19.77
2017-07-30T11:05:19.978Z,19.84
2017-07-30T11:06:30.252Z,19.87
2017-07-30T11:07:40.524Z,19.89
2017-07-30T11:08:50.501Z,19.9
2017-07-30T11:10:00.770Z,19.92
2017-07-30T11:11:11.045Z,19.99
2017-07-30T11:12:21.008Z,19.94
2017-07-30T11:13:31.293Z,20.12
2017-07-30T11:14:41.246Z,20.14
2017-07-30T11:15:51.210Z,20.14
2017-07-30T11:17:01.178Z,20.39
2017-07-30T11:18:11.454Z,20.37
2017-07-30T11:19:21.732Z,20.59
2017-07-30T11:20:31.694Z,20.78
2017-07-30T11:21:41.978Z,20.93
2017-07-30T11:22:52.254Z,21.08
2017-07-30T11:24:02.527Z,21.19
2017-07-30T11:25:12.807Z,21.4
2017-07-30T11:26:23.086Z,21.58
2017-07-30T11:27:33.362Z,21.75
2017-07-30T11:28:43.646Z,21.91
2017-07-30T11:29:53.925Z,22.28
2017-07-30T11:31:04.200Z,22.46
2017-07-30T11:32:14.473Z,22.73
2017-07-30T11:33:24.752Z,22.84
2017-07-30T11:34:35.031Z,23.2
2017-07-30T11:35:45.305Z,23.69
2017-07-30T11:36:55.581Z,24.11
2017-07-30T11:38:05.863Z,24.55
2017-07-30T11:39:16.143Z,25
2017-07-30T11:40:26.098Z,25.06
2017-07-30T11:41:36.398Z,25.09
2017-07-30T11:42:46.362Z,25.26
2017-07-30T11:43:56.633Z,25.55
2017-07-30T11:45:06.915Z,25.76
2017-07-30T11:46:16.880Z,25.89
2017-07-30T11:47:27.156Z,26.16
2017-07-30T11:48:37.126Z,26.67
2017-07-30T11:49:47.087Z,27
2017-07-30T11:50:57.049Z,27.34
2017-07-30T11:52:07.327Z,27.5
2017-07-30T11:53:17.613Z,27.85
2017-07-30T11:54:27.897Z,27.45
2017-07-30T11:55:37.866Z,26.71
2017-07-30T11:56:48.147Z,26.23
2017-07-30T11:57:58.116Z,26.26
2017-07-30T11:59:08.397Z,26.22
2017-07-30T12:00:18.677Z,26.23
2017-07-30T12:01:28.960Z,26.1
2017-07-30T12:02:39.237Z,25.78
2017-07-30T12:03:49.525Z,25.58
2017-07-30T12:04:59.807Z,25.49
2017-07-30T12:06:10.090Z,25.33
2017-07-30T12:07:20.373Z,25.25
2017-07-30T12:08:30.341Z,25.14
2017-07-30T12:09:40.619Z,25.04
2017-07-30T12:10:50.900Z,24.89
2017-07-30T12:12:01.177Z,24.86
2017-07-30T12:13:11.455Z,24.88
2017-07-30T12:14:21.738Z,25
2017-07-30T12:15:32.018Z,25.09
2017-07-30T12:16:42.297Z,25.34
2017-07-30T12:17:52.581Z,25.54
2017-07-30T12:19:02.861Z,25.71
2017-07-30T12:20:13.150Z,25.76
2017-07-30T12:21:23.116Z,25.91
2017-07-30T12:22:33.394Z,25.76
2017-07-30T12:23:43.671Z,25.71
2017-07-30T12:24:53.329Z,25.71
2017-07-30T12:26:03.607Z,25.76
2017-07-30T12:27:13.888Z,25.74
2017-07-30T12:28:24.174Z,25.78
2017-07-30T12:29:34.141Z,25.49
2017-07-30T12:30:44.417Z,25.49
2017-07-30T12:31:54.697Z,25.3
2017-07-30T12:33:04.977Z,25.06
2017-07-30T12:34:15.255Z,24.79
2017-07-30T12:35:25.531Z,24.75
2017-07-30T12:36:35.810Z,24.48
2017-07-30T12:37:45.782Z,24.61
2017-07-30T12:38:56.061Z,24.43
2017-07-30T12:40:06.039Z,24.24
2017-07-30T12:41:15.376Z,24.19
2017-07-30T12:42:25.030Z,24.14
2017-07-30T12:43:35.003Z,23.92
2017-07-30T12:44:44.964Z,23.81
2017-07-30T12:45:54.929Z,23.62
2017-07-30T12:47:05.212Z,23.58
2017-07-30T12:48:15.488Z,23.58
2017-07-30T12:49:25.138Z,23.56
2017-07-30T12:50:35.439Z,23.44
2017-07-30T12:51:45.719Z,23.44
2017-07-30T12:52:55.995Z,23.56
2017-07-30T12:54:06.269Z,23.63
2017-07-30T12:55:16.234Z,23.58
2017-07-30T12:56:26.510Z,23.71
2017-07-30T12:57:36.787Z,23.82
2017-07-30T12:58:46.437Z,23.86
2017-07-30T12:59:56.718Z,24.07
2017-07-30T13:01:07.001Z,24.1
2017-07-30T13:02:17.322Z,24
2017-07-30T13:03:27.634Z,24.06
2017-07-30T13:04:37.917Z,24.11
2017-07-30T13:05:47.566Z,24.06
2017-07-30T13:06:57.841Z,24.07
2017-07-30T13:08:08.132Z,24.18
2017-07-30T13:09:18.418Z,24.11
2017-07-30T13:10:28.699Z,24.11
2017-07-30T13:11:38.663Z,24.06
2017-07-30T13:12:48.945Z,24.11
2017-07-30T13:13:59.222Z,24.03
2017-07-30T13:15:09.206Z,24.07
2017-07-30T13:16:19.483Z,23.96
2017-07-30T13:17:29.131Z,23.91
2017-07-30T13:18:39.407Z,23.85
2017-07-30T13:19:49.067Z,23.62
2017-07-30T13:20:59.040Z,23.62
2017-07-30T13:22:09.011Z,23.58
2017-07-30T13:23:18.979Z,23.36
2017-07-30T13:24:28.629Z,23.45
2017-07-30T13:25:38.909Z,23.44
2017-07-30T13:26:48.567Z,23.26
2017-07-30T13:27:58.845Z,23.21
2017-07-30T13:29:08.807Z,23.11
2017-07-30T13:30:18.776Z,23.13
2017-07-30T13:31:29.054Z,23.02
2017-07-30T13:32:39.019Z,22.99
2017-07-30T13:33:48.665Z,22.89
2017-07-30T13:34:58.628Z,22.84
2017-07-30T13:36:08.905Z,22.8
2017-07-30T13:37:19.184Z,22.92
2017-07-30T13:38:29.470Z,23.26
2017-07-30T13:39:39.433Z,23.47
2017-07-30T13:40:49.083Z,23.63
2017-07-30T13:41:59.367Z,23.84
2017-07-30T13:43:09.652Z,24.03
2017-07-30T13:44:19.935Z,23.82
2017-07-30T13:45:29.907Z,23.69
2017-07-30T13:46:39.897Z,23.69
2017-07-30T13:47:50.188Z,23.73
2017-07-30T13:49:00.156Z,23.56
2017-07-30T13:50:10.435Z,23.34
2017-07-30T13:51:20.408Z,23.42
2017-07-30T13:52:30.693Z,23.44
2017-07-30T13:53:40.032Z,23.45
2017-07-30T13:54:49.987Z,23.45
2017-07-30T13:55:59.950Z,23.44
2017-07-30T13:57:10.229Z,23.36
2017-07-30T13:58:20.193Z,23.37
2017-07-30T13:59:30.474Z,23.29
2017-07-30T14:00:40.754Z,23.36
2017-07-30T14:01:50.402Z,23.39
2017-07-30T14:03:00.369Z,23.34
2017-07-30T14:04:10.664Z,23.36
2017-07-30T14:05:20.947Z,23.36
2017-07-30T14:06:30.934Z,23.21
2017-07-30T14:07:41.221Z,23.01
2017-07-30T14:08:51.502Z,23.04
2017-07-30T14:10:01.462Z,22.92
2017-07-30T14:11:11.743Z,22.88
2017-07-30T14:12:21.703Z,22.81
2017-07-30T14:13:31.982Z,22.7
2017-07-30T14:14:41.628Z,22.44
2017-07-30T14:15:51.907Z,22.52
2017-07-30T14:17:01.875Z,22.44
2017-07-30T14:18:12.159Z,22.33
2017-07-30T14:19:22.438Z,22.25
2017-07-30T14:20:32.715Z,22.22
2017-07-30T14:21:42.366Z,22.19
2017-07-30T14:22:52.327Z,22.22
2017-07-30T14:24:02.297Z,22.28
2017-07-30T14:25:12.572Z,22.3
2017-07-30T14:26:22.533Z,22.46
2017-07-30T14:27:32.826Z,22.59
2017-07-30T14:28:43.114Z,22.76
2017-07-30T14:29:52.448Z,22.86
2017-07-30T14:31:02.420Z,23.07
2017-07-30T14:32:12.068Z,23.17
2017-07-30T14:33:22.346Z,23.25
2017-07-30T14:34:31.999Z,23.32
2017-07-30T14:35:42.281Z,23.29
2017-07-30T14:36:52.553Z,23.21
2017-07-30T14:38:02.830Z,23.13
2017-07-30T14:39:12.478Z,22.95
2017-07-30T14:40:22.757Z,22.91
2017-07-30T14:41:33.043Z,22.99
2017-07-30T14:42:43.009Z,22.92
2017-07-30T14:43:53.291Z,22.7
2017-07-30T14:45:03.566Z,22.7
2017-07-30T14:46:13.531Z,22.52
2017-07-30T14:47:23.494Z,22.46
2017-07-30T14:48:33.771Z,22.15
2017-07-30T14:49:43.746Z,21.91
2017-07-30T14:50:54.024Z,21.58
2017-07-30T14:52:04.305Z,21.38
2017-07-30T14:53:14.580Z,21.05
2017-07-30T14:54:24.863Z,20.95
2017-07-30T14:55:34.831Z,20.8
2017-07-30T14:56:44.478Z,20.77
2017-07-30T14:57:54.749Z,20.66
2017-07-30T14:59:04.720Z,20.55
2017-07-30T15:00:14.995Z,20.46
2017-07-30T15:01:25.274Z,20.39
2017-07-30T15:02:35.555Z,20.48
2017-07-30T15:03:45.838Z,20.4
2017-07-30T15:04:55.805Z,20.46
2017-07-30T15:06:05.764Z,20.48
2017-07-30T15:07:15.411Z,20.5